El Cerrito, CA (94530)

10:32 AM PST on February 09, 2016 (GMT -0800)
El Cerrito | | Change Station
CLOSE
Current Station
Personal Weather Station
Location: El Cerrito, CA
Elevation: 79 ft
Nearby Weather Stations

Elev 79 ft 37.92 °N, 122.31 °W | Updated 25 seconds ago

Partly Cloudy
Partly Cloudy
68.4 °F
Feels Like 68.4 °F
N
7.4
Wind Variable Wind from NNE
Gusts 12.0 mph

Today
High -- | Low -- °F
--% Chance of Precip.
Yesterday
High -- | Low -- °F
Precip. -- in
Pressure 30.25 in
Visibility 10.0 miles
Clouds Mostly Cloudy 20000 ft
Dew Point 51 °F
Humidity 54%
Rainfall 0.00 in
Snow Depth Not available.
7:06 AM 5:41 PM
New Moon, 2% visible
METAR KOAK 091753Z 25004KT 10SM BKN200 15/10 A3025 RMK AO2 SLP242 T01500100 10150 20078 53014
Pressure 30.25 in
Visibility 10.0 miles
Clouds Mostly Cloudy 20000 ft
Dew Point 51 °F
Humidity 54%
Rainfall 0.00 in
Snow Depth Not available.
7:06 AM 5:41 PM
New Moon, 2% visible
METAR KOAK 091753Z 25004KT 10SM BKN200 15/10 A3025 RMK AO2 SLP242 T01500100 10150 20078 53014

10-Day Weather Forecast

Almanac

Astronomy

Feb. 09, 2016 Rise Set
Actual Time
Civil Twilight
Nautical Twilight
Astronomical Twilight
Moon
Length of Visible Light
Length of Day
Tomorrow will be .
, % of the Moon is Illuminated

Today's Extremes

State Highs State Lows

Community

WunderPhotos

Upload Photos

1,891,656 photos uploaded!

WunderBlog® & News

Nearby

Air Quality

  Air Quality AQ Index Pollutant
Not available.

Snow Depth

Station Depth Elevation

Earthquake Activity

City Distance Mag. Time & Date
Minimum magnitude displayed is 2.5.

Coastal Water Temperatures

Place Temperature

Stations

Nearby Weather Stations

Station Location Temp. Windchill Dew Point Humidity Wind Precip. Elev Updated Type
                   

Watches & Warnings

There are currently no watches in effect.